sensor_id;sensor_type;location;lat;lon;timestamp;pressure;altitude;pressure_sealevel;temperature;humidity
16194;BME280;8204;53.582;10.080;2022-12-07T00:00:08;99776.28;;;5.38;100.00
16194;BME280;8204;53.582;10.080;2022-12-07T00:02:37;99770.13;;;5.39;100.00
16194;BME280;8204;53.582;10.080;2022-12-07T00:05:07;99752.03;;;5.30;100.00
16194;BME280;8204;53.582;10.080;2022-12-07T00:07:36;99741.19;;;5.34;100.00
16194;BME280;8204;53.582;10.080;2022-12-07T00:10:06;99732.72;;;5.32;100.00
16194;BME280;8204;53.582;10.080;2022-12-07T00:12:35;99726.13;;;5.38;100.00
16194;BME280;8204;53.582;10.080;2022-12-07T00:15:08;99726.59;;;5.41;100.00
16194;BME280;8204;53.582;10.080;2022-12-07T00:17:36;99723.28;;;5.49;100.00
16194;BME280;8204;53.582;10.080;2022-12-07T00:20:06;99726.03;;;5.47;100.00
16194;BME280;8204;53.582;10.080;2022-12-07T00:22:35;99721.63;;;5.48;100.00
16194;BME280;8204;53.582;10.080;2022-12-07T00:25:05;99726.53;;;5.51;100.00
16194;BME280;8204;53.582;10.080;2022-12-07T00:27:33;99721.47;;;5.49;100.00
16194;BME280;8204;53.582;10.080;2022-12-07T00:30:03;99715.31;;;5.50;100.00
16194;BME280;8204;53.582;10.080;2022-12-07T00:32:34;99729.28;;;5.49;100.00
16194;BME280;8204;53.582;10.080;2022-12-07T00:35:04;99722.31;;;5.50;100.00
16194;BME280;8204;53.582;10.080;2022-12-07T00:37:33;99718.06;;;5.49;100.00
16194;BME280;8204;53.582;10.080;2022-12-07T00:40:03;99710.63;;;5.54;100.00
16194;BME280;8204;53.582;10.080;2022-12-07T00:42:31;99713.06;;;5.55;100.00
16194;BME280;8204;53.582;10.080;2022-12-07T00:45:00;99725.41;;;5.53;100.00
16194;BME280;8204;53.582;10.080;2022-12-07T00:47:29;99707.06;;;5.55;100.00
16194;BME280;8204;53.582;10.080;2022-12-07T00:50:01;99706.63;;;5.59;100.00
16194;BME280;8204;53.582;10.080;2022-12-07T00:52:30;99696.69;;;5.55;100.00
16194;BME280;8204;53.582;10.080;2022-12-07T00:54:59;99681.91;;;5.55;100.00
16194;BME280;8204;53.582;10.080;2022-12-07T00:57:30;99683.97;;;5.52;100.00
16194;BME280;8204;53.582;10.080;2022-12-07T00:59:59;99674.72;;;5.49;100.00
16194;BME280;8204;53.582;10.080;2022-12-07T01:02:28;99671.81;;;5.52;100.00
16194;BME280;8204;53.582;10.080;2022-12-07T01:04:57;99671.00;;;5.52;100.00
16194;BME280;8204;53.582;10.080;2022-12-07T01:07:29;99666.41;;;5.46;100.00
16194;BME280;8204;53.582;10.080;2022-12-07T01:09:58;99660.06;;;5.40;100.00
16194;BME280;8204;53.582;10.080;2022-12-07T01:12:27;99653.06;;;5.41;100.00
16194;BME280;8204;53.582;10.080;2022-12-07T01:14:58;99636.38;;;5.43;100.00
16194;BME280;8204;53.582;10.080;2022-12-07T01:17:28;99632.09;;;5.34;100.00
16194;BME280;8204;53.582;10.080;2022-12-07T01:19:57;99621.09;;;5.40;100.00
16194;BME280;8204;53.582;10.080;2022-12-07T01:22:28;99622.41;;;5.44;100.00
16194;BME280;8204;53.582;10.080;2022-12-07T01:24:57;99615.28;;;5.46;100.00
16194;BME280;8204;53.582;10.080;2022-12-07T01:27:26;99629.53;;;5.42;100.00
16194;BME280;8204;53.582;10.080;2022-12-07T01:29:55;99630.72;;;5.48;100.00
16194;BME280;8204;53.582;10.080;2022-12-07T01:32:24;99637.03;;;5.45;100.00
16194;BME280;8204;53.582;10.080;2022-12-07T01:34:53;99638.81;;;5.45;100.00
16194;BME280;8204;53.582;10.080;2022-12-07T01:37:22;99651.00;;;5.44;100.00
16194;BME280;8204;53.582;10.080;2022-12-07T01:39:53;99652.41;;;5.39;100.00
16194;BME280;8204;53.582;10.080;2022-12-07T01:42:22;99662.66;;;5.40;100.00
16194;BME280;8204;53.582;10.080;2022-12-07T01:47:53;99646.25;;;5.40;100.00
16194;BME280;8204;53.582;10.080;2022-12-07T01:50:26;99634.09;;;5.40;100.00
16194;BME280;8204;53.582;10.080;2022-12-07T01:53:00;99636.97;;;5.37;100.00
16194;BME280;8204;53.582;10.080;2022-12-07T01:55:34;99644.94;;;5.36;100.00
16194;BME280;8204;53.582;10.080;2022-12-07T01:58:05;99646.56;;;5.37;100.00
16194;BME280;8204;53.582;10.080;2022-12-07T02:00:35;99632.41;;;5.31;100.00
16194;BME280;8204;53.582;10.080;2022-12-07T02:03:07;99638.91;;;5.35;100.00
16194;BME280;8204;53.582;10.080;2022-12-07T02:05:38;99648.50;;;5.35;100.00
16194;BME280;8204;53.582;10.080;2022-12-07T02:08:09;99638.91;;;5.35;100.00
16194;BME280;8204;53.582;10.080;2022-12-07T02:10:41;99645.22;;;5.33;100.00
16194;BME280;8204;53.582;10.080;2022-12-07T02:13:13;99650.22;;;5.26;100.00
16194;BME280;8204;53.582;10.080;2022-12-07T02:16:00;99630.25;;;5.27;100.00
16194;BME280;8204;53.582;10.080;2022-12-07T02:18:44;99631.53;;;5.23;100.00
16194;BME280;8204;53.582;10.080;2022-12-07T02:21:20;99637.38;;;5.25;100.00
16194;BME280;8204;53.582;10.080;2022-12-07T02:24:13;99641.56;;;5.18;100.00
16194;BME280;8204;53.582;10.080;2022-12-07T02:27:01;99644.28;;;5.16;100.00
16194;BME280;8204;53.582;10.080;2022-12-07T02:29:40;99649.34;;;5.18;100.00
16194;BME280;8204;53.582;10.080;2022-12-07T02:32:16;99649.47;;;5.16;100.00
16194;BME280;8204;53.582;10.080;2022-12-07T02:34:51;99663.06;;;5.10;100.00
16194;BME280;8204;53.582;10.080;2022-12-07T02:37:34;99656.91;;;5.11;100.00
16194;BME280;8204;53.582;10.080;2022-12-07T02:40:13;99667.13;;;5.13;100.00
16194;BME280;8204;53.582;10.080;2022-12-07T02:42:46;99663.06;;;5.10;100.00
16194;BME280;8204;53.582;10.080;2022-12-07T02:45:21;99666.34;;;5.12;100.00
16194;BME280;8204;53.582;10.080;2022-12-07T02:47:53;99670.84;;;5.10;100.00
16194;BME280;8204;53.582;10.080;2022-12-07T02:50:24;99700.69;;;5.06;100.00
16194;BME280;8204;53.582;10.080;2022-12-07T02:52:55;99694.16;;;5.03;100.00
16194;BME280;8204;53.582;10.080;2022-12-07T02:55:28;99702.31;;;5.07;100.00
16194;BME280;8204;53.582;10.080;2022-12-07T02:58:11;99706.56;;;5.08;100.00
16194;BME280;8204;53.582;10.080;2022-12-07T03:00:53;99725.16;;;5.04;100.00
16194;BME280;8204;53.582;10.080;2022-12-07T03:03:23;99727.59;;;5.05;100.00
16194;BME280;8204;53.582;10.080;2022-12-07T03:06:00;99748.38;;;5.05;100.00
16194;BME280;8204;53.582;10.080;2022-12-07T03:08:38;99761.78;;;5.01;100.00
16194;BME280;8204;53.582;10.080;2022-12-07T03:11:14;99772.69;;;5.04;100.00
16194;BME280;8204;53.582;10.080;2022-12-07T03:13:48;99781.34;;;4.96;100.00
16194;BME280;8204;53.582;10.080;2022-12-07T03:16:24;99777.28;;;4.93;100.00
16194;BME280;8204;53.582;10.080;2022-12-07T03:18:56;99774.25;;;4.98;100.00
16194;BME280;8204;53.582;10.080;2022-12-07T03:21:32;99774.84;;;4.92;100.00
16194;BME280;8204;53.582;10.080;2022-12-07T03:24:06;99781.28;;;4.88;100.00
16194;BME280;8204;53.582;10.080;2022-12-07T03:26:40;99772.81;;;4.86;100.00
16194;BME280;8204;53.582;10.080;2022-12-07T03:29:12;99762.19;;;4.79;100.00
16194;BME280;8204;53.582;10.080;2022-12-07T03:31:47;99762.88;;;4.81;100.00
16194;BME280;8204;53.582;10.080;2022-12-07T03:34:21;99768.50;;;4.77;100.00
16194;BME280;8204;53.582;10.080;2022-12-07T03:36:56;99792.16;;;4.74;100.00
16194;BME280;8204;53.582;10.080;2022-12-07T03:39:30;99786.28;;;4.72;100.00
16194;BME280;8204;53.582;10.080;2022-12-07T03:42:05;99781.78;;;4.74;100.00
16194;BME280;8204;53.582;10.080;2022-12-07T03:44:36;99797.34;;;4.74;100.00
16194;BME280;8204;53.582;10.080;2022-12-07T03:47:11;99798.69;;;4.78;100.00
16194;BME280;8204;53.582;10.080;2022-12-07T03:49:46;99811.28;;;4.73;100.00
16194;BME280;8204;53.582;10.080;2022-12-07T03:52:21;99801.19;;;4.70;100.00
16194;BME280;8204;53.582;10.080;2022-12-07T03:54:55;99819.50;;;4.68;100.00
16194;BME280;8204;53.582;10.080;2022-12-07T03:57:28;99801.47;;;4.67;100.00
16194;BME280;8204;53.582;10.080;2022-12-07T03:59:59;99819.78;;;4.65;100.00
16194;BME280;8204;53.582;10.080;2022-12-07T04:02:32;99813.13;;;4.63;100.00
16194;BME280;8204;53.582;10.080;2022-12-07T04:05:01;99819.69;;;4.57;100.00
16194;BME280;8204;53.582;10.080;2022-12-07T04:07:30;99824.44;;;4.62;100.00
16194;BME280;8204;53.582;10.080;2022-12-07T04:10:00;99822.44;;;4.56;100.00
16194;BME280;8204;53.582;10.080;2022-12-07T04:12:28;99820.38;;;4.50;100.00
16194;BME280;8204;53.582;10.080;2022-12-07T04:14:58;99819.16;;;4.54;100.00
16194;BME280;8204;53.582;10.080;2022-12-07T04:17:26;99824.75;;;4.49;100.00
16194;BME280;8204;53.582;10.080;2022-12-07T04:19:58;99828.84;;;4.52;100.00
16194;BME280;8204;53.582;10.080;2022-12-07T04:22:27;99833.66;;;4.47;100.00
16194;BME280;8204;53.582;10.080;2022-12-07T04:24:56;99826.41;;;4.50;100.00
16194;BME280;8204;53.582;10.080;2022-12-07T04:27:25;99812.47;;;4.51;100.00
16194;BME280;8204;53.582;10.080;2022-12-07T04:29:54;99839.66;;;4.47;100.00
16194;BME280;8204;53.582;10.080;2022-12-07T04:32:23;99843.06;;;4.48;100.00
16194;BME280;8204;53.582;10.080;2022-12-07T04:34:52;99842.69;;;4.43;100.00
16194;BME280;8204;53.582;10.080;2022-12-07T04:37:24;99837.38;;;4.35;100.00
16194;BME280;8204;53.582;10.080;2022-12-07T04:39:52;99835.44;;;4.37;100.00
16194;BME280;8204;53.582;10.080;2022-12-07T04:42:21;99818.81;;;4.39;100.00
16194;BME280;8204;53.582;10.080;2022-12-07T04:44:51;99819.63;;;4.40;100.00
16194;BME280;8204;53.582;10.080;2022-12-07T04:47:19;99829.47;;;4.36;100.00
16194;BME280;8204;53.582;10.080;2022-12-07T04:49:48;99836.13;;;4.39;100.00
16194;BME280;8204;53.582;10.080;2022-12-07T04:52:17;99835.59;;;4.35;100.00
16194;BME280;8204;53.582;10.080;2022-12-07T04:54:48;99842.19;;;4.30;100.00
16194;BME280;8204;53.582;10.080;2022-12-07T04:57:17;99838.03;;;4.37;100.00
16194;BME280;8204;53.582;10.080;2022-12-07T04:59:46;99838.72;;;4.39;100.00
16194;BME280;8204;53.582;10.080;2022-12-07T05:02:15;99843.34;;;4.45;100.00
16194;BME280;8204;53.582;10.080;2022-12-07T05:04:44;99842.56;;;4.35;100.00
16194;BME280;8204;53.582;10.080;2022-12-07T05:07:12;99856.75;;;4.31;100.00
16194;BME280;8204;53.582;10.080;2022-12-07T05:09:41;99860.72;;;4.35;100.00
16194;BME280;8204;53.582;10.080;2022-12-07T05:12:13;99864.41;;;4.32;100.00
16194;BME280;8204;53.582;10.080;2022-12-07T05:14:43;99864.94;;;4.36;100.00
16194;BME280;8204;53.582;10.080;2022-12-07T05:17:11;99865.22;;;4.33;100.00
16194;BME280;8204;53.582;10.080;2022-12-07T05:19:41;99862.63;;;4.33;100.00
16194;BME280;8204;53.582;10.080;2022-12-07T05:22:09;99864.50;;;4.40;100.00
16194;BME280;8204;53.582;10.080;2022-12-07T05:24:39;99863.56;;;4.32;100.00
16194;BME280;8204;53.582;10.080;2022-12-07T05:27:09;99873.94;;;4.32;100.00
16194;BME280;8204;53.582;10.080;2022-12-07T05:29:40;99883.94;;;4.27;100.00
16194;BME280;8204;53.582;10.080;2022-12-07T05:32:09;99886.53;;;4.27;100.00
16194;BME280;8204;53.582;10.080;2022-12-07T05:34:39;99881.59;;;4.24;100.00
16194;BME280;8204;53.582;10.080;2022-12-07T05:37:07;99878.22;;;4.24;100.00
16194;BME280;8204;53.582;10.080;2022-12-07T05:39:36;99887.63;;;4.25;100.00
16194;BME280;8204;53.582;10.080;2022-12-07T05:42:10;99893.75;;;4.24;100.00
16194;BME280;8204;53.582;10.080;2022-12-07T05:44:46;99891.44;;;4.21;100.00
16194;BME280;8204;53.582;10.080;2022-12-07T05:47:15;99894.19;;;4.19;100.00
16194;BME280;8204;53.582;10.080;2022-12-07T05:49:44;99904.13;;;4.24;100.00
16194;BME280;8204;53.582;10.080;2022-12-07T05:52:13;99895.66;;;4.22;100.00
16194;BME280;8204;53.582;10.080;2022-12-07T05:54:42;99893.75;;;4.24;100.00
16194;BME280;8204;53.582;10.080;2022-12-07T05:57:11;99899.75;;;4.24;100.00
16194;BME280;8204;53.582;10.080;2022-12-07T05:59:41;99901.53;;;4.24;100.00
16194;BME280;8204;53.582;10.080;2022-12-07T06:02:11;99906.19;;;4.20;100.00
16194;BME280;8204;53.582;10.080;2022-12-07T06:04:41;99910.00;;;4.26;100.00
16194;BME280;8204;53.582;10.080;2022-12-07T06:07:12;99914.50;;;4.24;100.00
16194;BME280;8204;53.582;10.080;2022-12-07T06:09:41;99914.66;;;4.22;100.00
16194;BME280;8204;53.582;10.080;2022-12-07T06:12:10;99910.81;;;4.26;100.00
16194;BME280;8204;53.582;10.080;2022-12-07T06:14:52;99922.44;;;4.22;100.00
16194;BME280;8204;53.582;10.080;2022-12-07T06:17:23;99926.66;;;4.23;100.00
16194;BME280;8204;53.582;10.080;2022-12-07T06:19:52;99935.41;;;4.22;100.00
16194;BME280;8204;53.582;10.080;2022-12-07T06:22:21;99939.88;;;4.20;100.00
16194;BME280;8204;53.582;10.080;2022-12-07T06:24:50;99942.75;;;4.27;100.00
16194;BME280;8204;53.582;10.080;2022-12-07T06:27:18;99948.34;;;4.22;100.00
16194;BME280;8204;53.582;10.080;2022-12-07T06:29:47;99957.47;;;4.26;100.00
16194;BME280;8204;53.582;10.080;2022-12-07T06:32:16;99958.84;;;4.21;100.00
16194;BME280;8204;53.582;10.080;2022-12-07T06:34:47;99954.50;;;4.21;100.00
16194;BME280;8204;53.582;10.080;2022-12-07T06:37:16;99964.84;;;4.21;100.00
16194;BME280;8204;53.582;10.080;2022-12-07T06:39:45;99963.38;;;4.19;100.00
16194;BME280;8204;53.582;10.080;2022-12-07T06:42:13;99960.09;;;4.17;100.00
16194;BME280;8204;53.582;10.080;2022-12-07T06:44:42;99954.22;;;4.15;100.00
16194;BME280;8204;53.582;10.080;2022-12-07T06:47:11;99956.78;;;4.15;100.00
16194;BME280;8204;53.582;10.080;2022-12-07T06:49:40;99953.13;;;4.17;100.00
16194;BME280;8204;53.582;10.080;2022-12-07T06:52:12;99952.72;;;4.12;100.00
16194;BME280;8204;53.582;10.080;2022-12-07T06:54:41;99942.88;;;4.16;100.00
16194;BME280;8204;53.582;10.080;2022-12-07T06:57:10;99935.94;;;4.16;100.00
16194;BME280;8204;53.582;10.080;2022-12-07T06:59:39;99923.63;;;4.18;100.00
16194;BME280;8204;53.582;10.080;2022-12-07T07:02:08;99921.59;;;4.12;100.00
16194;BME280;8204;53.582;10.080;2022-12-07T07:04:39;99907.00;;;4.21;100.00
16194;BME280;8204;53.582;10.080;2022-12-07T07:07:07;99904.00;;;4.25;100.00
16194;BME280;8204;53.582;10.080;2022-12-07T07:09:39;99910.56;;;4.29;100.00
16194;BME280;8204;53.582;10.080;2022-12-07T07:12:08;99902.88;;;4.28;100.00
16194;BME280;8204;53.582;10.080;2022-12-07T07:14:37;99899.75;;;4.24;100.00
16194;BME280;8204;53.582;10.080;2022-12-07T07:17:06;99892.41;;;4.29;100.00
16194;BME280;8204;53.582;10.080;2022-12-07T07:19:35;99885.97;;;4.33;100.00
16194;BME280;8204;53.582;10.080;2022-12-07T07:22:04;99882.56;;;4.32;100.00
16194;BME280;8204;53.582;10.080;2022-12-07T07:24:33;99879.81;;;4.34;100.00
16194;BME280;8204;53.582;10.080;2022-12-07T07:27:05;99873.28;;;4.30;100.00
16194;BME280;8204;53.582;10.080;2022-12-07T07:29:33;99876.44;;;4.33;100.00
16194;BME280;8204;53.582;10.080;2022-12-07T07:32:02;99877.22;;;4.34;100.00
16194;BME280;8204;53.582;10.080;2022-12-07T07:34:31;99870.41;;;4.33;100.00
16194;BME280;8204;53.582;10.080;2022-12-07T07:37:00;99869.88;;;4.30;100.00
16194;BME280;8204;53.582;10.080;2022-12-07T07:39:29;99876.69;;;4.31;100.00
16194;BME280;8204;53.582;10.080;2022-12-07T07:41:59;99878.47;;;4.30;100.00
16194;BME280;8204;53.582;10.080;2022-12-07T07:44:30;99876.16;;;4.27;100.00
16194;BME280;8204;53.582;10.080;2022-12-07T07:46:59;99877.50;;;4.31;100.00
16194;BME280;8204;53.582;10.080;2022-12-07T07:49:28;99876.84;;;4.29;100.00
16194;BME280;8204;53.582;10.080;2022-12-07T07:51:57;99879.13;;;4.32;100.00
16194;BME280;8204;53.582;10.080;2022-12-07T07:54:25;99886.81;;;4.33;100.00
16194;BME280;8204;53.582;10.080;2022-12-07T07:56:54;99914.06;;;4.37;100.00
16194;BME280;8204;53.582;10.080;2022-12-07T07:59:23;99906.56;;;4.34;100.00
16194;BME280;8204;53.582;10.080;2022-12-07T08:01:55;99894.97;;;4.38;100.00
16194;BME280;8204;53.582;10.080;2022-12-07T08:04:24;99905.34;;;4.38;100.00
16194;BME280;8204;53.582;10.080;2022-12-07T08:06:52;99899.19;;;4.39;100.00
16194;BME280;8204;53.582;10.080;2022-12-07T08:09:21;99903.13;;;4.43;100.00
16194;BME280;8204;53.582;10.080;2022-12-07T08:11:50;99904.94;;;4.43;100.00
16194;BME280;8204;53.582;10.080;2022-12-07T08:14:19;99920.34;;;4.44;100.00
16194;BME280;8204;53.582;10.080;2022-12-07T08:16:47;99924.69;;;4.44;100.00
16194;BME280;8204;53.582;10.080;2022-12-07T08:19:19;99924.44;;;4.47;100.00
16194;BME280;8204;53.582;10.080;2022-12-07T08:21:48;99912.94;;;4.49;100.00
16194;BME280;8204;53.582;10.080;2022-12-07T08:24:16;99923.19;;;4.51;100.00
16194;BME280;8204;53.582;10.080;2022-12-07T08:26:46;99933.28;;;4.54;100.00
16194;BME280;8204;53.582;10.080;2022-12-07T08:29:15;99927.94;;;4.55;100.00
16194;BME280;8204;53.582;10.080;2022-12-07T08:31:44;99931.38;;;4.56;100.00
16194;BME280;8204;53.582;10.080;2022-12-07T08:34:14;99929.16;;;4.61;100.00
16194;BME280;8204;53.582;10.080;2022-12-07T08:36:45;99936.66;;;4.64;100.00
16194;BME280;8204;53.582;10.080;2022-12-07T08:39:14;99930.09;;;4.69;100.00
16194;BME280;8204;53.582;10.080;2022-12-07T08:41:43;99949.38;;;4.67;100.00
16194;BME280;8204;53.582;10.080;2022-12-07T08:44:12;99944.03;;;4.68;100.00
16194;BME280;8204;53.582;10.080;2022-12-07T08:46:44;99935.81;;;4.73;100.00
16194;BME280;8204;53.582;10.080;2022-12-07T08:49:17;99953.03;;;4.74;100.00
16194;BME280;8204;53.582;10.080;2022-12-07T08:51:50;99940.75;;;4.76;100.00
16194;BME280;8204;53.582;10.080;2022-12-07T08:54:19;99946.44;;;4.79;100.00
16194;BME280;8204;53.582;10.080;2022-12-07T08:56:49;99948.22;;;4.79;100.00
16194;BME280;8204;53.582;10.080;2022-12-07T08:59:19;99956.94;;;4.87;100.00
16194;BME280;8204;53.582;10.080;2022-12-07T09:01:49;99957.34;;;4.83;100.00
16194;BME280;8204;53.582;10.080;2022-12-07T09:04:17;99953.69;;;4.85;100.00
16194;BME280;8204;53.582;10.080;2022-12-07T09:06:47;99950.53;;;4.91;100.00
16194;BME280;8204;53.582;10.080;2022-12-07T09:09:18;99949.94;;;4.97;100.00
16194;BME280;8204;53.582;10.080;2022-12-07T09:11:47;99949.13;;;4.97;100.00
16194;BME280;8204;53.582;10.080;2022-12-07T09:14:16;99948.53;;;5.03;100.00
16194;BME280;8204;53.582;10.080;2022-12-07T09:16:45;99945.00;;;5.03;100.00
16194;BME280;8204;53.582;10.080;2022-12-07T09:19:14;99945.53;;;5.07;100.00
16194;BME280;8204;53.582;10.080;2022-12-07T09:21:43;99948.00;;;5.08;100.00
16194;BME280;8204;53.582;10.080;2022-12-07T09:24:13;99946.47;;;5.06;100.00
16194;BME280;8204;53.582;10.080;2022-12-07T09:26:44;99941.97;;;5.08;100.00
16194;BME280;8204;53.582;10.080;2022-12-07T09:29:13;99944.94;;;5.13;100.00
16194;BME280;8204;53.582;10.080;2022-12-07T09:31:42;99942.81;;;5.08;100.00
16194;BME280;8204;53.582;10.080;2022-12-07T09:34:11;99948.06;;;5.16;100.00
16194;BME280;8204;53.582;10.080;2022-12-07T09:36:40;99959.81;;;5.20;100.00
16194;BME280;8204;53.582;10.080;2022-12-07T09:39:09;99954.31;;;5.23;100.00
16194;BME280;8204;53.582;10.080;2022-12-07T09:41:38;99940.00;;;5.19;100.00
16194;BME280;8204;53.582;10.080;2022-12-07T09:44:13;99944.78;;;5.24;100.00
16194;BME280;8204;53.582;10.080;2022-12-07T09:46:44;99941.06;;;5.26;100.00
16194;BME280;8204;53.582;10.080;2022-12-07T09:49:16;99962.06;;;5.33;100.00
16194;BME280;8204;53.582;10.080;2022-12-07T09:51:47;99955.91;;;5.34;100.00
16194;BME280;8204;53.582;10.080;2022-12-07T09:54:16;99965.34;;;5.35;100.00
16194;BME280;8204;53.582;10.080;2022-12-07T09:56:45;99958.19;;;5.46;100.00
16194;BME280;8204;53.582;10.080;2022-12-07T09:59:18;99969.38;;;5.47;100.00
16194;BME280;8204;53.582;10.080;2022-12-07T10:01:49;99961.84;;;5.53;100.00
16194;BME280;8204;53.582;10.080;2022-12-07T10:04:20;99964.13;;;5.56;100.00
16194;BME280;8204;53.582;10.080;2022-12-07T10:06:50;99963.53;;;5.62;100.00
16194;BME280;8204;53.582;10.080;2022-12-07T10:09:21;99961.19;;;5.69;100.00
16194;BME280;8204;53.582;10.080;2022-12-07T10:12:01;99983.75;;;5.68;100.00
16194;BME280;8204;53.582;10.080;2022-12-07T10:14:35;99993.19;;;5.69;100.00
16194;BME280;8204;53.582;10.080;2022-12-07T10:17:28;99991.94;;;5.73;100.00
16194;BME280;8204;53.582;10.080;2022-12-07T10:20:16;99997.72;;;5.77;100.00
16194;BME280;8204;53.582;10.080;2022-12-07T10:23:00;100016.81;;;5.76;100.00
16194;BME280;8204;53.582;10.080;2022-12-07T10:25:32;100039.53;;;5.74;100.00
16194;BME280;8204;53.582;10.080;2022-12-07T10:28:10;100035.94;;;5.84;100.00
16194;BME280;8204;53.582;10.080;2022-12-07T10:30:55;100051.25;;;5.87;100.00
16194;BME280;8204;53.582;10.080;2022-12-07T10:33:31;100086.16;;;5.84;100.00
16194;BME280;8204;53.582;10.080;2022-12-07T10:36:01;100102.69;;;5.83;100.00
16194;BME280;8204;53.582;10.080;2022-12-07T10:38:45;100110.91;;;5.88;100.00
16194;BME280;8204;53.582;10.080;2022-12-07T10:41:15;100103.06;;;5.98;100.00
16194;BME280;8204;53.582;10.080;2022-12-07T10:43:49;100113.31;;;5.99;100.00
16194;BME280;8204;53.582;10.080;2022-12-07T10:46:39;100122.22;;;5.97;100.00
16194;BME280;8204;53.582;10.080;2022-12-07T10:49:36;100114.53;;;6.05;100.00
16194;BME280;8204;53.582;10.080;2022-12-07T10:52:18;100126.47;;;5.98;100.00
16194;BME280;8204;53.582;10.080;2022-12-07T10:54:56;100159.31;;;5.99;100.00
16194;BME280;8204;53.582;10.080;2022-12-07T10:57:39;100162.34;;;5.94;100.00
16194;BME280;8204;53.582;10.080;2022-12-07T11:00:19;100159.59;;;5.96;100.00
16194;BME280;8204;53.582;10.080;2022-12-07T11:03:11;100160.91;;;6.00;100.00
16194;BME280;8204;53.582;10.080;2022-12-07T11:05:50;100172.53;;;6.05;100.00
16194;BME280;8204;53.582;10.080;2022-12-07T11:08:36;100186.06;;;6.09;100.00
16194;BME280;8204;53.582;10.080;2022-12-07T11:11:16;100183.19;;;6.12;100.00
16194;BME280;8204;53.582;10.080;2022-12-07T11:13:59;100199.19;;;6.17;100.00
16194;BME280;8204;53.582;10.080;2022-12-07T11:16:55;100205.13;;;6.09;100.00
16194;BME280;8204;53.582;10.080;2022-12-07T11:19:49;100204.44;;;6.07;100.00
16194;BME280;8204;53.582;10.080;2022-12-07T11:22:38;100229.50;;;5.99;100.00
16194;BME280;8204;53.582;10.080;2022-12-07T11:25:20;100223.84;;;6.03;100.00
16194;BME280;8204;53.582;10.080;2022-12-07T11:28:16;100203.31;;;6.10;100.00
16194;BME280;8204;53.582;10.080;2022-12-07T11:31:07;100207.72;;;6.09;100.00
16194;BME280;8204;53.582;10.080;2022-12-07T11:33:48;100223.16;;;6.11;100.00
16194;BME280;8204;53.582;10.080;2022-12-07T11:36:33;100238.63;;;6.12;100.00
16194;BME280;8204;53.582;10.080;2022-12-07T11:39:22;100248.63;;;6.07;100.00
16194;BME280;8204;53.582;10.080;2022-12-07T11:41:59;100270.25;;;6.08;100.00
16194;BME280;8204;53.582;10.080;2022-12-07T11:44:34;100273.38;;;6.11;100.00
16194;BME280;8204;53.582;10.080;2022-12-07T11:47:12;100282.97;;;6.11;100.00
16194;BME280;8204;53.582;10.080;2022-12-07T11:49:49;100287.06;;;6.13;100.00
16194;BME280;8204;53.582;10.080;2022-12-07T11:52:30;100303.22;;;6.17;100.00
16194;BME280;8204;53.582;10.080;2022-12-07T11:55:02;100296.19;;;6.27;100.00
16194;BME280;8204;53.582;10.080;2022-12-07T11:57:39;100303.72;;;6.30;100.00
16194;BME280;8204;53.582;10.080;2022-12-07T12:00:15;100315.25;;;6.27;100.00
16194;BME280;8204;53.582;10.080;2022-12-07T12:02:49;100321.25;;;6.28;100.00
16194;BME280;8204;53.582;10.080;2022-12-07T12:05:22;100349.06;;;6.27;100.00
16194;BME280;8204;53.582;10.080;2022-12-07T12:08:05;100341.25;;;6.27;100.00
16194;BME280;8204;53.582;10.080;2022-12-07T12:10:48;100349.44;;;6.32;100.00
16194;BME280;8204;53.582;10.080;2022-12-07T12:13:40;100401.91;;;6.28;100.00
16194;BME280;8204;53.582;10.080;2022-12-07T12:16:35;100397.63;;;6.36;100.00
16194;BME280;8204;53.582;10.080;2022-12-07T12:19:18;100415.03;;;6.36;100.00
16194;BME280;8204;53.582;10.080;2022-12-07T12:21:55;100429.41;;;6.40;100.00
16194;BME280;8204;53.582;10.080;2022-12-07T12:24:31;100467.47;;;6.41;100.00
16194;BME280;8204;53.582;10.080;2022-12-07T12:27:05;100466.38;;;6.43;100.00
16194;BME280;8204;53.582;10.080;2022-12-07T12:29:37;100468.16;;;6.43;100.00
16194;BME280;8204;53.582;10.080;2022-12-07T12:32:17;100476.53;;;6.37;100.00
16194;BME280;8204;53.582;10.080;2022-12-07T12:35:01;100485.44;;;6.44;100.00
16194;BME280;8204;53.582;10.080;2022-12-07T12:37:41;100516.91;;;6.41;100.00
16194;BME280;8204;53.582;10.080;2022-12-07T12:49:54;100489.06;;;6.79;100.00
16194;BME280;8204;53.582;10.080;2022-12-07T12:52:51;100490.16;;;6.86;100.00
16194;BME280;8204;53.582;10.080;2022-12-07T12:55:45;100511.94;;;6.85;100.00
16194;BME280;8204;53.582;10.080;2022-12-07T12:58:38;100540.03;;;6.81;100.00
